Barkhamsted, Connecticut
Current Conditions -  °F | °C
As of 10:51 PM on Wednesday 26 Nov 2014 (Local Time) from KBDL Reporting Station
Light Snow Light Snow  
Wind Chill: 25°   Ceiling: 1100
Heat Index: 35°   Visibility: 1.5mi
Dew Point: 31°   Wind: 16mph
Humidity: 85%   Direction: 350°N
Pressure: 29.74"   Gusts: 24mph
Location:  41.9398°N, 72.9667°W
Report Text: KBDL 270351Z 35014G21KT 1 1/2SM -SN BR SCT007 BKN011 OVC020 02/M01 A2974 RMK AO2 SFC VIS 2 1/2 SLP073 P0003 T00171006 $
Loading
Personal Weather Stations






























Interactive Weather Map New forecast layout! Learn more

10-Day Weather Forecast

Advertisements
Track Severe Weather on mobile